createdAt,value
2018-09-05T00:06:15.169Z,16.50
2018-09-05T00:08:54.221Z,16.50
2018-09-05T00:14:24.024Z,16.40
2018-09-05T00:19:41.957Z,16.40
2018-09-05T00:22:30.006Z,16.30
2018-09-05T00:25:09.644Z,16.30
2018-09-05T00:28:18.977Z,16.30
2018-09-05T00:31:00.369Z,16.30
2018-09-05T00:36:23.330Z,16.30
2018-09-05T00:39:06.072Z,16.30
2018-09-05T01:10:37.255Z,16.10
2018-09-05T01:16:15.188Z,16.00
2018-09-05T01:19:11.751Z,16.10
2018-09-05T01:21:58.242Z,16.00
2018-09-05T01:37:00.328Z,16.00
2018-09-05T01:39:46.797Z,16.00
2018-09-05T02:56:37.706Z,15.60
2018-09-05T02:59:08.335Z,15.60
2018-09-05T03:01:38.350Z,15.60
2018-09-05T03:04:12.658Z,15.60
2018-09-05T03:06:53.525Z,15.70
2018-09-05T03:09:23.390Z,15.70
2018-09-05T03:11:52.662Z,15.60
2018-09-05T03:14:22.446Z,15.60
2018-09-05T03:16:57.890Z,15.60
2018-09-05T03:19:41.532Z,15.70
2018-09-05T03:22:17.379Z,15.70
2018-09-05T03:25:03.430Z,15.70
2018-09-05T03:27:59.840Z,15.70
2018-09-05T03:33:30.095Z,15.70
2018-09-05T03:42:23.752Z,15.60
2018-09-05T03:56:56.206Z,15.60
2018-09-05T04:59:49.032Z,15.60
2018-09-05T05:12:10.242Z,15.80
2018-09-05T05:27:01.651Z,15.90
2018-09-05T06:09:10.152Z,16.20
2018-09-05T06:11:39.686Z,16.20
2018-09-05T06:14:09.507Z,16.30
2018-09-05T06:16:42.190Z,16.30
2018-09-05T06:19:12.797Z,16.40
2018-09-05T06:21:45.010Z,16.50
2018-09-05T06:24:16.400Z,16.50
2018-09-05T06:26:50.669Z,16.60
2018-09-05T06:29:20.143Z,16.60
2018-09-05T06:31:49.320Z,16.70
2018-09-05T06:34:19.219Z,16.80
2018-09-05T06:36:54.996Z,16.90
2018-09-05T06:39:24.048Z,17.00
2018-09-05T06:41:53.129Z,17.00
2018-09-05T06:44:22.936Z,17.10
2018-09-05T06:46:51.966Z,17.20
2018-09-05T06:49:21.297Z,17.20
2018-09-05T06:51:51.205Z,17.30
2018-09-05T06:54:20.348Z,17.40
2018-09-05T06:56:51.000Z,17.40
2018-09-05T06:59:20.581Z,17.50
2018-09-05T07:01:50.548Z,17.50
2018-09-05T07:04:20.378Z,17.60
2018-09-05T07:06:49.698Z,17.70
2018-09-05T07:09:19.904Z,17.70
2018-09-05T07:11:49.910Z,17.70
2018-09-05T07:14:21.085Z,17.80
2018-09-05T07:16:51.032Z,17.90
2018-09-05T07:19:21.477Z,18.00
2018-09-05T07:21:50.980Z,18.00
2018-09-05T07:24:21.317Z,18.00
2018-09-05T07:26:56.492Z,18.10
2018-09-05T07:29:27.102Z,18.20
2018-09-05T07:32:00.114Z,18.20
2018-09-05T07:34:30.265Z,18.30
2018-09-05T07:37:04.137Z,18.40
2018-09-05T07:39:34.532Z,18.40
2018-09-05T07:42:03.753Z,18.50
2018-09-05T07:44:32.765Z,18.50
2018-09-05T07:47:04.217Z,18.60
2018-09-05T07:49:43.412Z,18.70
2018-09-05T07:52:23.940Z,18.80
2018-09-05T07:55:04.273Z,18.90
2018-09-05T07:57:33.729Z,19.00
2018-09-05T08:00:07.748Z,19.10
2018-09-05T08:02:37.438Z,19.10
2018-09-05T08:05:11.876Z,19.20
2018-09-05T08:07:41.092Z,19.20
2018-09-05T08:10:11.748Z,19.20
2018-09-05T08:12:42.657Z,19.30
2018-09-05T08:15:12.589Z,19.30
2018-09-05T08:17:42.264Z,19.30
2018-09-05T08:20:15.866Z,19.40
2018-09-05T08:22:50.177Z,19.40
2018-09-05T08:25:30.309Z,19.50
2018-09-05T08:28:10.238Z,19.60
2018-09-05T08:30:41.038Z,19.70
2018-09-05T08:33:14.604Z,19.80
2018-09-05T08:35:44.377Z,19.80
2018-09-05T08:38:15.399Z,19.90
2018-09-05T08:40:46.202Z,19.90
2018-09-05T08:43:24.588Z,19.90
2018-09-05T08:45:58.873Z,19.90
2018-09-05T08:48:35.067Z,19.90
2018-09-05T08:51:06.417Z,20.00
2018-09-05T08:53:40.295Z,20.00
2018-09-05T08:56:11.243Z,20.00
2018-09-05T08:58:45.259Z,20.00
2018-09-05T09:01:18.753Z,20.00
2018-09-05T09:06:39.747Z,20.00
2018-09-05T09:09:11.890Z,20.00
2018-09-05T09:11:41.894Z,20.00
2018-09-05T09:14:13.198Z,20.10
2018-09-05T09:20:16.779Z,20.20
2018-09-05T09:22:48.824Z,20.20
2018-09-05T09:25:22.021Z,20.30
2018-09-05T09:33:28.217Z,20.50
2018-09-05T09:36:13.460Z,20.60
2018-09-05T09:41:28.842Z,20.80
2018-09-05T09:44:07.441Z,20.90
2018-09-05T09:46:47.178Z,21.00
2018-09-05T09:49:19.456Z,21.00
2018-09-05T09:52:04.284Z,21.00
2018-09-05T10:00:24.250Z,21.20
2018-09-05T10:08:36.350Z,21.40
2018-09-05T10:14:06.633Z,21.70
2018-09-05T10:21:41.049Z,21.90
2018-09-05T10:24:13.185Z,22.00
2018-09-05T10:26:58.271Z,22.00
2018-09-05T10:29:35.574Z,22.00
2018-09-05T10:32:17.181Z,22.00
2018-09-05T10:37:30.370Z,22.10
2018-09-05T10:40:06.275Z,22.10
2018-09-05T10:45:12.709Z,22.20
2018-09-05T10:47:55.666Z,22.30
2018-09-05T10:50:31.913Z,22.30
2018-09-05T10:53:07.868Z,22.30
2018-09-05T10:58:28.700Z,22.40
2018-09-05T11:01:10.501Z,22.50
2018-09-05T11:03:41.125Z,22.60
2018-09-05T11:06:17.966Z,22.60
2018-09-05T11:08:55.411Z,22.60
2018-09-05T11:11:26.879Z,22.70
2018-09-05T11:13:58.722Z,23.00
2018-09-05T11:16:38.288Z,23.30
2018-09-05T11:19:16.154Z,23.50
2018-09-05T11:21:47.387Z,23.40
2018-09-05T11:24:16.964Z,23.40
2018-09-05T11:26:50.325Z,23.30
2018-09-05T11:29:20.737Z,23.20
2018-09-05T11:31:51.072Z,23.20
2018-09-05T11:34:20.413Z,23.20
2018-09-05T11:37:33.799Z,23.20
2018-09-05T11:40:10.473Z,23.10
2018-09-05T11:42:41.948Z,23.20
2018-09-05T11:45:15.917Z,23.20
2018-09-05T11:47:52.209Z,23.20
2018-09-05T11:50:27.449Z,23.20
2018-09-05T11:55:36.231Z,23.20
2018-09-05T11:58:09.735Z,23.20
2018-09-05T12:00:49.941Z,23.20
2018-09-05T12:03:26.481Z,23.10
2018-09-05T12:06:04.961Z,23.10
2018-09-05T12:08:37.011Z,23.20
2018-09-05T12:13:47.536Z,23.50
2018-09-05T12:16:20.606Z,23.60
2018-09-05T12:18:55.558Z,23.80
2018-09-05T12:24:11.407Z,23.90
2018-09-05T12:26:56.186Z,23.90
2018-09-05T12:29:32.368Z,23.90
2018-09-05T12:32:08.368Z,23.80
2018-09-05T12:34:45.325Z,23.90
2018-09-05T12:37:16.314Z,23.90
2018-09-05T12:39:50.170Z,23.90
2018-09-05T12:42:24.067Z,24.10
2018-09-05T12:44:55.209Z,24.10
2018-09-05T12:47:28.834Z,24.10
2018-09-05T12:49:58.468Z,24.00
2018-09-05T12:52:28.028Z,24.00
2018-09-05T12:54:59.708Z,23.90
2018-09-05T12:57:30.480Z,23.90
2018-09-05T13:00:00.721Z,23.80
2018-09-05T13:02:33.099Z,23.70
2018-09-05T13:05:03.666Z,23.60
2018-09-05T13:07:36.816Z,23.50
2018-09-05T13:10:08.306Z,23.50
2018-09-05T13:12:42.710Z,23.40
2018-09-05T13:15:12.061Z,23.40
2018-09-05T13:17:42.408Z,23.40
2018-09-05T13:20:16.045Z,23.40
2018-09-05T13:22:47.810Z,23.40
2018-09-05T13:25:18.324Z,23.40
2018-09-05T13:27:49.707Z,23.40
2018-09-05T13:30:20.873Z,23.30
2018-09-05T13:32:52.680Z,23.20
2018-09-05T13:35:26.657Z,23.10
2018-09-05T13:37:56.148Z,23.10
2018-09-05T13:40:30.031Z,23.10
2018-09-05T13:42:58.991Z,23.10
2018-09-05T13:45:28.446Z,23.20
2018-09-05T13:47:59.497Z,23.20
2018-09-05T13:50:29.759Z,23.30
2018-09-05T13:55:41.660Z,23.30
2018-09-05T13:58:12.697Z,23.40
2018-09-05T14:03:22.117Z,23.30
2018-09-05T14:05:51.669Z,23.20
2018-09-05T14:08:30.124Z,23.00
2018-09-05T14:10:59.791Z,23.00
2018-09-05T14:13:34.171Z,22.90
2018-09-05T14:16:05.077Z,23.00
2018-09-05T14:18:42.553Z,23.10
2018-09-05T14:21:24.105Z,23.20
2018-09-05T14:26:53.933Z,23.20
2018-09-05T14:32:08.058Z,23.20
2018-09-05T14:34:49.343Z,23.30
2018-09-05T14:45:58.270Z,23.30
2018-09-05T14:48:33.380Z,23.20
2018-09-05T14:53:57.618Z,23.20
2018-09-05T14:56:32.283Z,23.20
2018-09-05T15:14:04.262Z,23.40
2018-09-05T15:25:22.490Z,24.20
2018-09-05T15:28:07.076Z,25.10
2018-09-05T15:45:36.734Z,28.00
2018-09-05T15:48:47.413Z,28.20
2018-09-05T15:57:20.506Z,28.80
2018-09-05T16:03:44.445Z,29.50
2018-09-05T16:06:38.968Z,29.70
2018-09-05T16:24:05.904Z,29.60
2018-09-05T16:29:51.173Z,29.30
2018-09-05T16:46:48.460Z,25.80
2018-09-05T16:57:36.228Z,24.40
2018-09-05T17:06:03.398Z,23.70
2018-09-05T17:22:47.445Z,22.50
2018-09-05T17:25:34.792Z,22.40
2018-09-05T17:30:58.359Z,22.10
2018-09-05T17:39:12.647Z,21.80
2018-09-05T17:41:54.372Z,21.70
2018-09-05T17:47:31.512Z,21.50
2018-09-05T17:52:56.522Z,21.30
2018-09-05T17:55:30.327Z,21.20
2018-09-05T17:58:26.469Z,21.10
2018-09-05T18:06:39.061Z,20.90
2018-09-05T18:12:01.958Z,20.70
2018-09-05T18:20:14.732Z,20.60
2018-09-05T19:40:31.505Z,19.40
2018-09-05T20:03:46.431Z,19.20
2018-09-05T20:12:20.220Z,19.10
2018-09-05T20:17:51.960Z,19.00
2018-09-05T21:03:13.193Z,18.70
2018-09-05T21:06:01.760Z,18.70
2018-09-05T21:22:42.422Z,18.50
2018-09-05T21:36:42.511Z,18.40
2018-09-05T21:39:22.824Z,18.40
2018-09-05T21:42:01.558Z,18.40
2018-09-05T22:04:55.985Z,18.10
2018-09-05T22:07:50.054Z,18.10
2018-09-05T22:25:13.197Z,17.90
2018-09-05T22:46:20.345Z,17.70
2018-09-05T23:23:27.329Z,17.40
2018-09-05T23:25:56.869Z,17.30
2018-09-05T23:28:28.248Z,17.30
2018-09-05T23:30:59.379Z,17.30
2018-09-05T23:33:30.518Z,17.20
2018-09-05T23:36:07.189Z,17.20
2018-09-05T23:38:36.490Z,17.20
2018-09-05T23:41:11.339Z,17.20
2018-09-05T23:43:42.376Z,17.20
2018-09-05T23:46:12.851Z,17.20
2018-09-05T23:48:42.770Z,17.20
2018-09-05T23:51:12.126Z,17.10
2018-09-05T23:53:43.293Z,17.10
2018-09-05T23:56:13.194Z,17.10
2018-09-05T23:58:42.849Z,17.10
